Time;durP1;ratioP1;P1;durP2;ratioP2;P2;SDS_P1;SDS_P2;PMS_P1;PMS_P2;Temp;Humidity;BMP_temperature;BMP_pressure;BME280_temperature;BME280_humidity;BME280_pressure;Samples;Min_cycle;Max_cycle;Signal;HPM_P1;HPM_P2
2022/09/11 00:00:09;;;;;;;27.30;21.92;;;15.20;99.90;;;;;;5010768;28;20076;-47
2022/09/11 00:02:36;;;;;;;26.50;21.50;;;15.20;99.90;;;;;;5012447;28;20092;-42
2022/09/11 00:05:03;;;;;;;27.00;21.17;;;15.10;99.90;;;;;;5010978;28;20124;-43
2022/09/11 00:07:36;;;;;;;27.58;20.35;;;15.10;99.90;;;;;;5016252;28;20078;-51
2022/09/11 00:10:06;;;;;;;28.80;21.73;;;15.10;99.90;;;;;;5017250;28;20417;-50
2022/09/11 00:12:33;;;;;;;29.58;21.75;;;15.10;99.90;;;;;;5019340;28;20049;-46
2022/09/11 00:15:00;;;;;;;27.08;20.75;;;15.10;99.90;;;;;;5016814;28;20556;-47
2022/09/11 00:17:26;;;;;;;30.90;22.90;;;15.10;99.90;;;;;;5012257;28;20395;-47
2022/09/11 00:19:53;;;;;;;28.85;21.42;;;15.10;99.90;;;;;;5017428;28;20077;-46
2022/09/11 00:22:20;;;;;;;27.45;22.55;;;15.00;99.90;;;;;;5018497;28;20085;-47
2022/09/11 00:24:47;;;;;;;26.35;22.10;;;15.00;99.90;;;;;;5019261;28;20148;-45
2022/09/11 00:27:15;;;;;;;29.45;23.88;;;15.00;99.90;;;;;;5018030;28;20490;-48
2022/09/11 00:29:42;;;;;;;24.60;18.55;;;15.00;99.90;;;;;;5018198;28;20081;-48
2022/09/11 00:32:09;;;;;;;27.63;21.55;;;15.00;99.90;;;;;;5018437;28;20132;-47
2022/09/11 00:34:37;;;;;;;33.42;24.05;;;14.90;99.90;;;;;;5018233;28;20058;-48
2022/09/11 00:37:04;;;;;;;26.38;21.05;;;14.90;99.90;;;;;;5018400;28;20056;-49
2022/09/11 00:39:31;;;;;;;27.13;22.90;;;14.90;99.90;;;;;;5016663;28;20494;-44
2022/09/11 00:41:58;;;;;;;24.42;19.92;;;14.90;99.90;;;;;;5005028;28;20046;-49
2022/09/11 00:44:59;;;;;;;30.77;22.05;;;14.80;99.90;;;;;;5019169;28;20112;-47
2022/09/11 00:47:26;;;;;;;26.92;21.17;;;14.80;99.90;;;;;;5019027;28;20482;-48
2022/09/11 00:49:54;;;;;;;27.55;21.65;;;14.80;99.90;;;;;;5017272;28;20116;-46
2022/09/11 00:52:26;;;;;;;30.35;23.25;;;14.80;99.90;;;;;;5016911;28;20045;-49
2022/09/11 00:54:55;;;;;;;33.25;23.52;;;14.80;99.90;;;;;;5018581;28;20061;-41
2022/09/11 00:57:22;;;;;;;24.08;20.50;;;14.70;99.90;;;;;;5018923;28;20478;-48
2022/09/11 00:59:50;;;;;;;27.50;21.95;;;14.70;99.90;;;;;;5015556;28;20058;-44
2022/09/11 01:02:19;;;;;;;28.13;20.95;;;14.70;99.90;;;;;;5018250;28;20062;-48
2022/09/11 01:04:46;;;;;;;30.70;22.35;;;14.70;99.90;;;;;;5018966;28;20054;-46
2022/09/11 01:07:12;;;;;;;26.15;19.92;;;14.70;99.90;;;;;;5018708;28;20532;-46
2022/09/11 01:09:39;;;;;;;30.60;24.30;;;14.70;99.90;;;;;;5018638;28;20104;-47
2022/09/11 01:12:09;;;;;;;24.15;20.15;;;14.60;99.90;;;;;;5016401;28;20077;-48
2022/09/11 01:14:41;;;;;;;27.25;21.88;;;14.60;99.90;;;;;;5018827;28;20084;-50
2022/09/11 01:17:16;;;;;;;32.13;24.65;;;14.60;99.90;;;;;;5005039;28;20566;-50
2022/09/11 01:20:04;;;;;;;35.70;27.65;;;14.60;99.90;;;;;;4999819;28;20054;-47
2022/09/11 01:22:58;;;;;;;35.65;26.40;;;14.60;99.90;;;;;;5014056;28;20402;-48
2022/09/11 01:25:27;;;;;;;31.33;25.65;;;14.50;99.90;;;;;;5014606;28;20537;-46
2022/09/11 01:27:55;;;;;;;31.90;25.42;;;14.50;99.90;;;;;;5015335;28;20410;-44
2022/09/11 01:30:22;;;;;;;37.78;27.63;;;14.50;99.90;;;;;;5015515;28;20504;-46
2022/09/11 01:32:58;;;;;;;33.25;23.08;;;14.50;99.90;;;;;;5009665;28;20136;-45
2022/09/11 01:35:27;;;;;;;32.60;25.65;;;14.40;99.90;;;;;;5015239;28;20065;-43
2022/09/11 01:37:56;;;;;;;29.00;22.38;;;14.40;99.90;;;;;;5015166;28;20121;-45
2022/09/11 01:40:24;;;;;;;29.35;22.70;;;14.40;99.90;;;;;;5014430;28;20064;-50
2022/09/11 01:42:52;;;;;;;25.20;20.13;;;14.40;99.90;;;;;;5013712;28;20136;-49
2022/09/11 01:45:20;;;;;;;30.95;23.45;;;14.40;99.90;;;;;;5014212;28;20128;-47
2022/09/11 01:47:48;;;;;;;27.15;23.38;;;14.40;99.90;;;;;;5012275;28;20073;-42
2022/09/11 01:50:16;;;;;;;24.45;20.60;;;14.40;99.90;;;;;;5014626;28;20046;-46
2022/09/11 01:52:46;;;;;;;24.95;20.90;;;14.40;99.90;;;;;;5013678;28;20379;-46
2022/09/11 01:55:15;;;;;;;23.33;17.75;;;14.40;99.90;;;;;;5014997;28;20577;-48
2022/09/11 01:57:44;;;;;;;23.45;20.02;;;14.30;99.90;;;;;;5013737;28;20119;-44
2022/09/11 02:00:12;;;;;;;23.50;19.45;;;14.40;99.90;;;;;;5012880;28;20120;-44
2022/09/11 02:02:43;;;;;;;24.85;20.20;;;14.30;99.90;;;;;;5012571;28;20133;-50
2022/09/11 02:05:14;;;;;;;25.13;22.42;;;14.30;99.90;;;;;;5013655;28;20145;-41
2022/09/11 02:07:43;;;;;;;21.63;17.97;;;14.30;99.90;;;;;;5006469;28;20041;-46
2022/09/11 02:10:13;;;;;;;23.70;19.77;;;14.30;99.90;;;;;;5013508;28;20045;-48
2022/09/11 02:12:41;;;;;;;25.40;21.55;;;14.30;99.90;;;;;;5013653;28;20096;-46
2022/09/11 02:15:09;;;;;;;24.58;20.20;;;14.30;99.90;;;;;;5014298;28;20128;-48
2022/09/11 02:17:41;;;;;;;20.42;17.80;;;14.30;99.90;;;;;;5000620;28;20089;-44
2022/09/11 02:20:09;;;;;;;21.08;18.75;;;14.30;99.90;;;;;;5013915;28;20553;-46
2022/09/11 02:22:36;;;;;;;23.77;20.63;;;14.30;99.90;;;;;;5010782;28;20073;-47
2022/09/11 02:25:04;;;;;;;20.08;17.88;;;14.30;99.90;;;;;;4994867;28;20101;-48
2022/09/11 02:27:32;;;;;;;22.27;19.38;;;14.20;99.90;;;;;;4993755;28;20046;-47
2022/09/11 02:29:59;;;;;;;24.88;20.45;;;14.20;99.90;;;;;;4994153;28;20050;-46
2022/09/11 02:32:26;;;;;;;18.63;16.63;;;14.20;99.90;;;;;;5006829;28;20128;-47
2022/09/11 02:34:54;;;;;;;23.08;20.50;;;14.20;99.90;;;;;;5013275;28;20085;-45
2022/09/11 02:37:30;;;;;;;27.40;22.42;;;14.20;99.90;;;;;;5012826;28;20054;-44
2022/09/11 02:40:21;;;;;;;22.83;19.52;;;14.20;99.90;;;;;;5006382;28;20085;-41
2022/09/11 02:43:07;;;;;;;20.50;18.27;;;14.20;99.90;;;;;;5011320;28;20078;-45
2022/09/11 02:45:36;;;;;;;22.40;18.20;;;14.10;99.90;;;;;;5012954;28;20049;-46
2022/09/11 02:48:16;;;;;;;17.98;16.02;;;14.10;99.90;;;;;;5014090;28;20513;-46
2022/09/11 02:50:44;;;;;;;20.40;18.23;;;14.10;99.90;;;;;;5013910;28;20627;-48
2022/09/11 02:53:14;;;;;;;19.85;17.10;;;14.10;99.90;;;;;;5013858;28;20132;-43
2022/09/11 02:55:48;;;;;;;21.63;18.52;;;14.10;99.90;;;;;;5012030;28;20125;-48
2022/09/11 02:58:16;;;;;;;16.92;15.02;;;14.10;99.90;;;;;;5011363;28;20125;-47
2022/09/11 03:00:46;;;;;;;18.13;16.23;;;14.00;99.90;;;;;;5011471;28;20128;-46
2022/09/11 03:03:13;;;;;;;16.75;14.48;;;14.00;99.90;;;;;;5012924;28;20058;-46
2022/09/11 03:05:40;;;;;;;19.60;17.50;;;14.00;99.90;;;;;;5013827;28;20056;-48
2022/09/11 03:08:07;;;;;;;18.55;16.10;;;14.00;99.90;;;;;;4995056;28;20137;-47
2022/09/11 03:10:37;;;;;;;17.30;15.48;;;14.00;99.90;;;;;;5011817;28;20085;-47
2022/09/11 03:13:04;;;;;;;20.77;17.85;;;14.00;99.90;;;;;;5011361;28;20057;-46
2022/09/11 03:15:30;;;;;;;18.38;15.43;;;13.90;99.90;;;;;;5012499;28;20132;-45
2022/09/11 03:17:57;;;;;;;17.65;13.75;;;13.90;99.90;;;;;;4993287;28;20089;-43
2022/09/11 03:20:24;;;;;;;16.48;14.35;;;13.90;99.90;;;;;;5012288;28;20061;-49
2022/09/11 03:22:51;;;;;;;19.17;17.13;;;13.90;99.90;;;;;;5012781;28;20401;-48
2022/09/11 03:25:17;;;;;;;20.20;17.92;;;13.90;99.90;;;;;;5013249;28;20050;-49
2022/09/11 03:27:46;;;;;;;18.58;16.58;;;13.80;99.90;;;;;;5013137;28;20553;-48
2022/09/11 03:30:13;;;;;;;16.52;14.15;;;13.80;99.90;;;;;;5012467;28;20092;-48
2022/09/11 03:32:39;;;;;;;19.10;17.10;;;13.80;99.90;;;;;;5012913;28;20082;-47
2022/09/11 03:35:07;;;;;;;19.85;17.00;;;13.80;99.90;;;;;;5012781;28;20085;-47
2022/09/11 03:37:33;;;;;;;17.10;15.20;;;13.80;99.90;;;;;;5012382;28;20100;-47
2022/09/11 03:40:01;;;;;;;20.38;16.10;;;13.80;99.90;;;;;;5012422;28;20088;-48
2022/09/11 03:42:28;;;;;;;18.48;13.63;;;13.70;99.90;;;;;;5012156;28;20038;-47
2022/09/11 03:44:56;;;;;;;15.40;13.75;;;13.70;99.90;;;;;;5012216;28;20082;-47
2022/09/11 03:47:23;;;;;;;15.63;14.02;;;13.70;99.90;;;;;;5013332;28;20129;-50
2022/09/11 03:49:50;;;;;;;17.88;15.00;;;13.70;99.90;;;;;;5012430;28;20133;-50
2022/09/11 03:52:16;;;;;;;17.35;15.00;;;13.70;99.90;;;;;;5012169;28;20046;-51
2022/09/11 03:54:43;;;;;;;14.77;13.05;;;13.70;99.90;;;;;;5007306;28;20064;-45
2022/09/11 03:57:10;;;;;;;17.05;15.02;;;13.70;99.90;;;;;;5012275;28;20470;-48
2022/09/11 03:59:38;;;;;;;16.08;14.38;;;13.70;99.90;;;;;;5011675;28;20542;-45
2022/09/11 04:02:06;;;;;;;14.80;12.38;;;13.70;99.90;;;;;;5012523;28;20473;-45
2022/09/11 04:04:33;;;;;;;12.05;10.85;;;13.70;99.90;;;;;;5013030;28;20058;-49
2022/09/11 04:07:00;;;;;;;15.25;13.65;;;13.60;99.90;;;;;;5012016;28;20061;-47
2022/09/11 04:09:26;;;;;;;15.93;14.25;;;13.60;99.90;;;;;;5010112;28;20050;-47
2022/09/11 04:11:53;;;;;;;16.40;13.93;;;13.60;99.90;;;;;;5010605;28;20062;-47
2022/09/11 04:14:21;;;;;;;15.40;12.05;;;13.50;99.90;;;;;;5011454;28;20081;-46
2022/09/11 04:16:48;;;;;;;13.70;12.30;;;13.50;99.90;;;;;;5012822;28;20505;-48
2022/09/11 04:19:17;;;;;;;12.52;11.30;;;13.50;99.90;;;;;;5010600;28;20050;-51
2022/09/11 04:21:44;;;;;;;11.25;10.05;;;13.50;99.90;;;;;;5011750;28;20054;-49
2022/09/11 04:24:11;;;;;;;12.25;10.98;;;13.50;99.90;;;;;;5011818;28;20057;-50
2022/09/11 04:26:37;;;;;;;12.10;10.90;;;13.50;99.90;;;;;;5011702;28;20073;-50
2022/09/11 04:29:04;;;;;;;11.15;10.05;;;13.50;99.90;;;;;;5011551;28;20185;-47
2022/09/11 04:31:31;;;;;;;12.57;11.27;;;13.40;99.90;;;;;;5011070;28;20122;-49
2022/09/11 04:33:58;;;;;;;14.05;12.57;;;13.40;99.90;;;;;;5012011;28;20133;-50
2022/09/11 04:36:28;;;;;;;12.40;11.10;;;13.40;99.90;;;;;;5012447;28;20049;-47
2022/09/11 04:38:56;;;;;;;11.55;10.35;;;13.50;99.90;;;;;;5012323;28;20049;-43
2022/09/11 04:41:23;;;;;;;10.65;9.52;;;13.40;99.90;;;;;;5010638;28;20263;-48
2022/09/11 04:43:53;;;;;;;13.02;11.73;;;13.50;99.90;;;;;;5011274;28;20132;-50
2022/09/11 04:46:20;;;;;;;10.70;9.57;;;13.50;99.90;;;;;;5011127;28;20085;-50
2022/09/11 04:48:47;;;;;;;11.40;10.30;;;13.50;99.90;;;;;;5010889;28;20084;-44
2022/09/11 04:51:20;;;;;;;9.00;8.10;;;13.50;99.90;;;;;;5011783;28;20077;-46
2022/09/11 04:53:48;;;;;;;9.93;8.90;;;13.50;99.90;;;;;;5008369;28;20092;-46
2022/09/11 04:56:15;;;;;;;13.90;10.30;;;13.50;99.90;;;;;;5002669;28;20082;-47
2022/09/11 04:58:42;;;;;;;12.85;11.02;;;13.50;99.90;;;;;;5014226;28;20045;-52
2022/09/11 05:01:09;;;;;;;12.77;11.40;;;13.60;99.90;;;;;;5014558;28;20058;-52
2022/09/11 05:03:35;;;;;;;9.15;8.25;;;13.60;99.90;;;;;;5012401;28;20141;-49
2022/09/11 05:06:05;;;;;;;11.43;10.18;;;13.60;99.90;;;;;;5014817;28;20132;-51
2022/09/11 05:08:32;;;;;;;12.85;11.45;;;13.60;99.90;;;;;;5015276;28;20045;-50
2022/09/11 05:11:00;;;;;;;8.63;7.82;;;13.60;99.90;;;;;;5012503;28;20058;-51
2022/09/11 05:13:30;;;;;;;10.93;9.30;;;13.60;99.90;;;;;;5015330;28;20073;-47
2022/09/11 05:16:01;;;;;;;11.88;10.15;;;13.60;99.90;;;;;;5014967;28;20053;-50
2022/09/11 05:18:28;;;;;;;10.65;9.65;;;13.70;99.90;;;;;;5014827;28;20100;-44
2022/09/11 05:21:00;;;;;;;12.48;11.18;;;13.60;99.90;;;;;;5013926;28;20064;-50
2022/09/11 05:23:27;;;;;;;13.23;11.82;;;13.60;99.90;;;;;;5014999;28;20081;-49
2022/09/11 05:25:57;;;;;;;11.25;10.10;;;13.60;99.90;;;;;;5014388;28;20053;-48
2022/09/11 05:28:26;;;;;;;11.55;10.35;;;13.60;99.90;;;;;;5015314;28;20520;-49
2022/09/11 05:30:53;;;;;;;13.55;12.18;;;13.60;99.90;;;;;;5013180;28;20513;-49
2022/09/11 05:33:20;;;;;;;9.77;8.05;;;13.60;99.90;;;;;;5012552;28;20054;-44
2022/09/11 05:35:47;;;;;;;12.77;10.52;;;13.60;99.90;;;;;;5001680;28;20120;-48
2022/09/11 05:38:13;;;;;;;15.13;10.35;;;13.60;99.90;;;;;;5014892;28;20081;-48
2022/09/11 05:40:44;;;;;;;13.20;11.88;;;13.60;99.90;;;;;;5014074;28;20143;-48
2022/09/11 05:43:11;;;;;;;11.40;10.25;;;13.60;99.90;;;;;;5015194;28;20045;-47
2022/09/11 05:45:39;;;;;;;10.23;8.43;;;13.60;99.90;;;;;;5012924;28;20058;-49
2022/09/11 05:48:07;;;;;;;11.55;10.13;;;13.60;99.90;;;;;;5013297;28;20137;-51
2022/09/11 05:50:33;;;;;;;13.15;11.32;;;13.60;99.90;;;;;;5011965;28;20054;-46
2022/09/11 05:53:00;;;;;;;10.85;9.55;;;13.60;99.90;;;;;;5010599;28;20137;-49
2022/09/11 05:55:27;;;;;;;9.40;8.15;;;13.60;99.90;;;;;;4997585;28;20085;-47
2022/09/11 05:57:54;;;;;;;13.00;11.40;;;13.70;99.90;;;;;;5013476;28;20552;-48
2022/09/11 06:00:21;;;;;;;11.10;9.65;;;13.70;99.90;;;;;;5013876;28;20041;-51
2022/09/11 06:02:49;;;;;;;12.52;11.15;;;13.70;99.90;;;;;;5014860;28;20057;-49
2022/09/11 06:05:17;;;;;;;11.77;10.57;;;13.70;99.90;;;;;;5014244;28;20057;-47
2022/09/11 06:07:44;;;;;;;9.68;8.70;;;13.70;99.90;;;;;;5013469;28;20054;-49
2022/09/11 06:10:10;;;;;;;10.10;9.13;;;13.80;99.90;;;;;;5010162;28;20054;-47
2022/09/11 06:12:37;;;;;;;13.27;11.95;;;13.80;99.90;;;;;;5012276;28;20549;-48
2022/09/11 06:15:05;;;;;;;11.48;10.35;;;14.00;99.90;;;;;;5014749;28;20050;-46
2022/09/11 06:17:31;;;;;;;17.65;14.38;;;13.90;99.90;;;;;;5014208;28;20050;-52
2022/09/11 06:20:00;;;;;;;16.75;14.70;;;14.00;99.90;;;;;;5011615;28;20058;-48
2022/09/11 06:22:30;;;;;;;17.55;15.25;;;14.00;99.90;;;;;;5014454;28;20437;-48
2022/09/11 06:25:02;;;;;;;16.23;13.23;;;14.10;99.90;;;;;;5014460;28;20058;-48
2022/09/11 06:27:29;;;;;;;18.02;16.00;;;14.20;99.90;;;;;;5014016;28;20122;-46
2022/09/11 06:29:56;;;;;;;18.02;16.13;;;14.30;99.90;;;;;;5014252;28;20112;-45
2022/09/11 06:32:23;;;;;;;17.23;14.52;;;14.30;99.90;;;;;;5011126;28;20081;-48
2022/09/11 06:34:49;;;;;;;13.25;11.85;;;14.40;99.90;;;;;;5011235;28;20089;-49
2022/09/11 06:37:17;;;;;;;14.43;13.02;;;14.50;99.90;;;;;;5012831;28;20053;-48
2022/09/11 06:39:44;;;;;;;12.77;11.55;;;14.50;99.90;;;;;;5007004;28;20568;-50
2022/09/11 06:42:11;;;;;;;11.35;10.27;;;14.60;99.90;;;;;;5013073;28;20080;-50
2022/09/11 06:44:40;;;;;;;13.13;11.82;;;14.60;99.90;;;;;;5013311;28;20092;-44
2022/09/11 06:47:07;;;;;;;12.57;11.30;;;14.80;99.90;;;;;;5013254;28;20100;-48
2022/09/11 06:49:34;;;;;;;13.20;11.18;;;14.80;99.90;;;;;;5013133;28;20141;-46
2022/09/11 06:52:00;;;;;;;12.38;11.07;;;14.90;99.90;;;;;;5005880;28;20093;-45
2022/09/11 06:54:28;;;;;;;10.77;9.77;;;14.90;99.90;;;;;;5009000;28;20166;-48
2022/09/11 06:56:55;;;;;;;13.10;11.90;;;15.00;99.90;;;;;;5012010;28;20111;-51
2022/09/11 06:59:23;;;;;;;12.57;11.27;;;15.10;99.90;;;;;;5007977;28;20078;-45
2022/09/11 07:01:50;;;;;;;14.35;12.85;;;15.20;99.90;;;;;;5012137;28;20050;-43
2022/09/11 07:04:17;;;;;;;15.45;12.00;;;15.30;99.90;;;;;;5011389;28;20054;-50
2022/09/11 07:06:43;;;;;;;14.95;13.45;;;15.40;99.90;;;;;;5011766;28;20406;-49
2022/09/11 07:09:11;;;;;;;13.90;12.05;;;15.50;99.90;;;;;;5012533;28;20077;-49
2022/09/11 07:11:42;;;;;;;14.80;12.45;;;15.60;99.90;;;;;;5011307;28;20421;-48
2022/09/11 07:14:09;;;;;;;15.80;12.60;;;15.70;99.90;;;;;;5013723;28;20046;-49
2022/09/11 07:16:36;;;;;;;17.52;14.13;;;15.80;99.90;;;;;;5011756;28;20085;-50
2022/09/11 07:19:03;;;;;;;15.20;13.38;;;16.00;99.90;;;;;;5012659;28;20042;-47
2022/09/11 07:21:30;;;;;;;14.38;12.85;;;16.10;99.90;;;;;;5012963;28;20077;-42
2022/09/11 07:23:58;;;;;;;17.00;14.43;;;16.20;99.90;;;;;;5011971;28;20121;-48
2022/09/11 07:26:26;;;;;;;18.38;14.82;;;16.40;99.90;;;;;;5012067;28;20073;-44
2022/09/11 07:28:56;;;;;;;15.40;13.52;;;16.50;99.90;;;;;;5006442;28;20554;-43
2022/09/11 07:31:24;;;;;;;16.30;13.65;;;16.70;99.90;;;;;;5012588;28;20052;-46
2022/09/11 07:33:51;;;;;;;15.98;12.05;;;16.80;99.90;;;;;;5002551;28;20078;-48
2022/09/11 07:36:19;;;;;;;16.95;15.07;;;16.90;99.90;;;;;;5009591;28;20124;-42
2022/09/11 07:38:46;;;;;;;18.55;14.30;;;17.10;99.90;;;;;;5003005;28;20141;-48
2022/09/11 07:41:13;;;;;;;15.40;12.80;;;17.20;99.90;;;;;;5012579;28;20050;-42
2022/09/11 07:43:41;;;;;;;13.07;11.75;;;17.30;99.90;;;;;;5006376;28;20486;-41
2022/09/11 07:46:09;;;;;;;14.63;13.10;;;17.50;99.90;;;;;;5010753;28;20049;-43
2022/09/11 07:48:36;;;;;;;14.60;12.20;;;17.60;99.90;;;;;;5004625;28;20060;-49
2022/09/11 07:51:05;;;;;;;15.98;12.82;;;17.80;99.90;;;;;;5013312;28;20446;-46
2022/09/11 07:53:32;;;;;;;18.63;13.35;;;18.00;99.90;;;;;;5012982;28;20129;-41
2022/09/11 07:56:02;;;;;;;17.92;12.50;;;18.10;99.90;;;;;;5010132;28;20157;-46
2022/09/11 07:58:32;;;;;;;14.30;12.32;;;18.20;99.90;;;;;;5010005;28;20045;-48
2022/09/11 08:00:59;;;;;;;16.15;12.40;;;18.40;99.90;;;;;;5011916;28;20116;-47
2022/09/11 08:03:29;;;;;;;16.85;12.10;;;18.50;99.90;;;;;;5011044;28;20528;-46
2022/09/11 08:05:57;;;;;;;15.55;11.73;;;18.60;99.90;;;;;;5010031;28;20409;-45
2022/09/11 08:08:24;;;;;;;14.63;10.68;;;18.70;99.90;;;;;;5012790;28;20125;-49
2022/09/11 08:10:51;;;;;;;14.13;11.35;;;18.90;99.90;;;;;;5011597;28;20089;-48
2022/09/11 08:13:18;;;;;;;15.55;10.00;;;19.00;99.90;;;;;;5009460;28;20077;-50
2022/09/11 08:15:49;;;;;;;12.27;10.55;;;19.20;99.90;;;;;;5009268;28;20061;-43
2022/09/11 08:18:15;;;;;;;10.48;9.32;;;19.40;99.90;;;;;;5008286;28;20054;-47
2022/09/11 08:20:44;;;;;;;13.43;9.23;;;19.50;99.90;;;;;;5010846;28;20551;-47
2022/09/11 08:23:11;;;;;;;13.52;8.68;;;19.70;99.90;;;;;;5011906;28;20386;-46
2022/09/11 08:25:38;;;;;;;9.45;8.07;;;19.80;99.90;;;;;;5007477;28;20045;-44
2022/09/11 08:28:04;;;;;;;8.57;7.40;;;19.90;99.90;;;;;;5013210;28;20383;-44
2022/09/11 08:30:32;;;;;;;10.73;7.50;;;20.00;99.90;;;;;;5016419;28;20054;-41
2022/09/11 08:32:58;;;;;;;10.30;6.93;;;20.00;99.90;;;;;;5015355;28;20457;-42
2022/09/11 08:35:26;;;;;;;10.35;7.60;;;20.10;99.90;;;;;;5014715;28;20141;-45
2022/09/11 08:37:54;;;;;;;10.95;7.13;;;20.10;99.90;;;;;;5013576;28;20478;-47
2022/09/11 08:40:21;;;;;;;7.40;6.32;;;20.20;99.90;;;;;;4996663;28;20582;-43
2022/09/11 08:42:47;;;;;;;9.27;6.22;;;20.30;99.90;;;;;;5010043;28;20085;-48
2022/09/11 08:45:15;;;;;;;10.00;6.07;;;20.40;99.90;;;;;;5014712;28;20417;-48
2022/09/11 08:47:44;;;;;;;11.70;5.93;;;20.40;99.90;;;;;;5016508;28;20093;-47
2022/09/11 08:50:16;;;;;;;9.70;6.13;;;20.40;99.90;;;;;;5015718;28;20056;-48
2022/09/11 08:52:43;;;;;;;7.65;5.53;;;20.40;99.90;;;;;;5013773;28;20112;-48
2022/09/11 08:55:13;;;;;;;9.63;5.85;;;20.40;99.90;;;;;;5016127;28;20093;-47
2022/09/11 08:57:42;;;;;;;5.73;4.53;;;20.50;99.90;;;;;;5016001;28;20108;-45
2022/09/11 09:00:15;;;;;;;8.75;4.95;;;20.60;99.90;;;;;;5015904;28;20322;-45
2022/09/11 09:03:05;;;;;;;5.68;3.85;;;20.70;99.90;;;;;;5014625;28;20057;-49
2022/09/11 09:05:35;;;;;;;8.60;4.47;;;20.80;99.90;;;;;;5015230;28;20081;-50
2022/09/11 09:08:13;;;;;;;8.18;5.13;;;21.00;99.90;;;;;;5015093;28;20109;-47
2022/09/11 09:10:47;;;;;;;5.32;3.53;;;21.20;99.90;;;;;;5013884;28;20129;-50
2022/09/11 09:13:26;;;;;;;10.43;3.15;;;21.30;99.90;;;;;;5016348;28;20137;-47
2022/09/11 09:15:56;;;;;;;5.20;2.90;;;21.30;99.90;;;;;;5015320;28;20085;-45
2022/09/11 09:18:26;;;;;;;4.70;2.67;;;21.20;99.90;;;;;;5015431;28;20089;-46
2022/09/11 09:20:59;;;;;;;8.65;3.50;;;21.20;99.90;;;;;;4995149;28;20186;-48
2022/09/11 09:23:27;;;;;;;7.32;3.70;;;21.10;99.90;;;;;;4995433;28;20046;-49
2022/09/11 09:25:56;;;;;;;7.60;4.10;;;21.00;99.90;;;;;;5003300;28;20056;-49
2022/09/11 09:28:24;;;;;;;7.13;3.25;;;21.00;99.90;;;;;;5012566;28;20054;-47
2022/09/11 09:30:51;;;;;;;6.65;4.13;;;20.90;99.90;;;;;;5015344;28;20478;-47
2022/09/11 09:33:29;;;;;;;5.53;3.75;;;20.90;99.90;;;;;;5015606;28;20469;-49
2022/09/11 09:35:56;;;;;;;9.35;4.05;;;21.10;99.90;;;;;;5015677;28;20054;-45
2022/09/11 09:38:26;;;;;;;5.53;3.30;;;21.40;99.90;;;;;;5015575;28;20131;-49
2022/09/11 09:40:58;;;;;;;4.75;3.17;;;21.60;99.90;;;;;;5013835;28;20130;-48
2022/09/11 09:43:31;;;;;;;6.70;2.63;;;21.90;99.90;;;;;;5012033;28;20132;-49
2022/09/11 09:46:06;;;;;;;6.80;3.10;;;22.10;99.50;;;;;;5014503;28;20137;-49
2022/09/11 09:48:34;;;;;;;6.10;2.30;;;22.30;98.90;;;;;;5013407;28;20089;-49
2022/09/11 09:51:02;;;;;;;6.80;2.40;;;22.50;98.20;;;;;;5014345;28;20097;-49
2022/09/11 09:53:32;;;;;;;6.60;2.65;;;22.60;97.90;;;;;;5014038;28;20548;-47
2022/09/11 09:56:00;;;;;;;3.38;2.00;;;22.80;97.70;;;;;;5014558;28;20108;-46
2022/09/11 09:58:30;;;;;;;2.45;1.60;;;23.00;97.80;;;;;;5013118;28;20050;-51
2022/09/11 10:00:57;;;;;;;5.38;1.70;;;23.20;97.00;;;;;;5013311;28;20137;-46
2022/09/11 10:03:24;;;;;;;4.47;1.52;;;23.40;96.00;;;;;;5014386;28;20379;-49
2022/09/11 10:05:53;;;;;;;3.95;1.50;;;23.40;94.70;;;;;;5009247;28;20108;-47
2022/09/11 10:08:32;;;;;;;4.75;1.60;;;23.20;94.40;;;;;;5008565;28;20053;-47
2022/09/11 10:11:01;;;;;;;3.88;1.60;;;23.00;94.60;;;;;;5010365;28;21754;-45
2022/09/11 10:13:28;;;;;;;4.20;1.90;;;22.80;94.70;;;;;;5013475;28;20100;-47
2022/09/11 10:15:56;;;;;;;3.70;1.65;;;22.70;95.00;;;;;;5012115;28;20069;-49
2022/09/11 10:18:27;;;;;;;3.28;1.40;;;22.60;94.90;;;;;;5012453;28;20050;-48
2022/09/11 10:20:54;;;;;;;9.23;2.35;;;22.50;95.40;;;;;;5013455;28;20049;-47
2022/09/11 10:23:22;;;;;;;4.15;1.83;;;22.50;95.10;;;;;;5012926;28;20049;-44
2022/09/11 10:25:50;;;;;;;6.25;2.50;;;22.40;95.30;;;;;;5013782;28;20077;-50
2022/09/11 10:28:21;;;;;;;6.00;2.17;;;22.40;95.30;;;;;;5011579;28;20049;-49
2022/09/11 10:30:56;;;;;;;6.55;2.35;;;22.30;95.40;;;;;;5012123;28;20104;-48
2022/09/11 10:33:26;;;;;;;5.03;1.70;;;22.30;95.80;;;;;;5009460;28;20042;-47
2022/09/11 10:35:54;;;;;;;7.25;2.13;;;22.40;96.20;;;;;;5011405;28;20061;-49
2022/09/11 10:38:21;;;;;;;6.45;2.10;;;22.70;95.90;;;;;;5009122;28;20068;-48
2022/09/11 10:40:56;;;;;;;4.07;2.17;;;23.00;95.40;;;;;;5007552;28;20061;-47
2022/09/11 10:43:26;;;;;;;4.47;2.08;;;23.20;94.80;;;;;;5012410;28;20517;-47
2022/09/11 10:46:04;;;;;;;4.43;1.80;;;23.40;94.40;;;;;;5013375;28;20477;-49
2022/09/11 10:48:31;;;;;;;3.17;1.40;;;23.60;93.60;;;;;;5011151;28;20111;-50
2022/09/11 10:51:04;;;;;;;5.20;1.67;;;23.70;92.70;;;;;;5011746;28;20418;-47
2022/09/11 10:53:33;;;;;;;2.78;1.50;;;23.80;92.60;;;;;;5010464;28;20046;-48
2022/09/11 10:56:02;;;;;;;4.28;1.27;;;24.00;92.40;;;;;;5010800;28;20124;-52
2022/09/11 10:58:31;;;;;;;1.85;1.10;;;24.20;91.70;;;;;;5012704;28;20590;-49
2022/09/11 11:00:58;;;;;;;2.80;1.10;;;24.50;90.80;;;;;;5011798;28;20053;-46
2022/09/11 11:03:26;;;;;;;4.93;1.50;;;24.60;90.00;;;;;;5011957;28;20133;-47
2022/09/11 11:05:58;;;;;;;2.72;1.33;;;24.70;89.30;;;;;;5012887;28;20153;-46
2022/09/11 11:08:58;;;;;;;3.08;1.25;;;24.80;88.20;;;;;;5014676;28;20144;-46
2022/09/11 11:11:33;;;;;;;5.82;1.80;;;24.90;89.90;;;;;;4994590;28;20054;-48
2022/09/11 11:14:21;;;;;;;6.03;1.52;;;25.00;87.70;;;;;;5007767;28;20060;-46
2022/09/11 11:16:53;;;;;;;3.50;1.00;;;25.00;89.50;;;;;;5020754;28;20089;-49
2022/09/11 11:19:46;;;;;;;1.90;0.95;;;25.00;88.00;;;;;;5009004;28;20466;-48
2022/09/11 11:22:19;;;;;;;2.83;1.23;;;25.00;88.30;;;;;;4988893;28;20112;-47
2022/09/11 11:24:56;;;;;;;2.85;1.38;;;24.90;89.20;;;;;;5008019;28;20089;-48
2022/09/11 11:27:55;;;;;;;5.13;1.45;;;24.90;89.70;;;;;;5013316;28;20046;-49
2022/09/11 11:30:25;;;;;;;3.30;1.60;;;24.80;90.30;;;;;;5011241;28;20073;-49
2022/09/11 11:33:07;;;;;;;3.87;1.57;;;24.80;89.70;;;;;;5008467;28;20046;-50
2022/09/11 11:35:36;;;;;;;3.83;1.52;;;24.90;89.10;;;;;;5007152;28;20050;-47
2022/09/11 11:38:07;;;;;;;2.67;1.70;;;25.10;88.20;;;;;;5007262;28;20081;-47
2022/09/11 11:40:35;;;;;;;4.82;1.85;;;25.20;87.70;;;;;;5009798;28;20112;-46
2022/09/11 11:43:04;;;;;;;3.92;1.35;;;25.20;85.60;;;;;;5011158;28;20042;-49
2022/09/11 11:45:36;;;;;;;3.97;1.33;;;25.20;85.40;;;;;;5027194;28;20576;-45
2022/09/11 11:48:07;;;;;;;4.53;1.55;;;25.20;86.20;;;;;;5025152;28;20049;-46
2022/09/11 11:50:34;;;;;;;;;;;25.40;85.70;;;;;;5011704;28;20050;-44
2022/09/11 11:53:05;;;;;;;3.92;1.65;;;25.50;85.20;;;;;;5013223;28;19922;-43
2022/09/11 11:55:39;;;;;;;3.88;1.48;;;25.70;85.20;;;;;;5012310;28;20054;-45
2022/09/11 11:58:08;;;;;;;4.45;1.42;;;25.90;84.10;;;;;;5010588;28;20468;-47
2022/09/11 12:00:39;;;;;;;3.05;1.48;;;25.90;83.70;;;;;;5011532;28;20099;-47
2022/09/11 12:03:09;;;;;;;7.43;1.53;;;25.80;84.00;;;;;;5012203;28;20100;-45
2022/09/11 12:05:36;;;;;;;6.57;1.42;;;25.60;83.10;;;;;;5024754;28;20313;-48
2022/09/11 12:08:03;;;;;;;3.22;1.27;;;25.50;83.70;;;;;;5009945;28;20050;-48
2022/09/11 12:10:32;;;;;;;2.47;1.30;;;25.40;84.40;;;;;;5010502;28;20054;-47
2022/09/11 12:12:59;;;;;;;3.03;1.20;;;25.20;83.90;;;;;;5012503;28;20508;-47
2022/09/11 12:15:28;;;;;;;2.47;1.40;;;25.20;83.50;;;;;;5011798;28;20129;-44
2022/09/11 12:18:01;;;;;;;4.82;1.27;;;25.20;83.20;;;;;;5012306;28;20493;-49
2022/09/11 12:20:36;;;;;;;2.85;1.20;;;25.10;83.40;;;;;;5003005;28;20047;-48
2022/09/11 12:23:03;;;;;;;2.03;1.00;;;25.10;84.70;;;;;;5003518;28;20104;-47
2022/09/11 12:25:49;;;;;;;3.70;1.25;;;25.00;83.90;;;;;;5011544;28;20046;-42
2022/09/11 12:28:25;;;;;;;3.33;1.00;;;25.00;83.50;;;;;;4993348;28;20054;-46
2022/09/11 12:30:58;;;;;;;4.13;1.20;;;24.90;84.60;;;;;;5009172;28;20062;-48
2022/09/11 12:33:53;;;;;;;3.25;1.30;;;25.00;83.60;;;;;;5010168;28;20140;-48
2022/09/11 12:36:38;;;;;;;3.72;0.90;;;25.40;81.50;;;;;;5006016;28;20120;-45
2022/09/11 12:39:15;;;;;;;2.55;1.20;;;25.50;79.90;;;;;;4986533;28;20565;-48
2022/09/11 12:41:42;;;;;;;5.13;1.30;;;25.80;79.20;;;;;;5006422;28;20046;-46
2022/09/11 12:44:29;;;;;;;3.10;1.15;;;26.00;78.20;;;;;;5004312;28;20168;-45
2022/09/11 12:47:16;;;;;;;4.32;1.52;;;26.30;80.10;;;;;;5011567;28;20054;-47